sensor_id;sensor_type;location;lat;lon;timestamp;pressure;altitude;pressure_sealevel;temperature;humidity
21361;BME280;10839;43.206;23.550;2024-03-17T00:02:17;97497.47;;;9.76;100.00
21361;BME280;10839;43.206;23.550;2024-03-17T00:04:44;97492.66;;;9.49;100.00
21361;BME280;10839;43.206;23.550;2024-03-17T00:07:10;97494.63;;;9.55;100.00
21361;BME280;10839;43.206;23.550;2024-03-17T00:09:35;97493.41;;;9.80;100.00
21361;BME280;10839;43.206;23.550;2024-03-17T00:12:01;97494.13;;;9.74;100.00
21361;BME280;10839;43.206;23.550;2024-03-17T00:14:26;97495.59;;;9.99;100.00
21361;BME280;10839;43.206;23.550;2024-03-17T00:16:53;97487.53;;;9.99;100.00
21361;BME280;10839;43.206;23.550;2024-03-17T00:19:19;97497.78;;;9.81;100.00
21361;BME280;10839;43.206;23.550;2024-03-17T00:21:45;97500.81;;;9.78;100.00
21361;BME280;10839;43.206;23.550;2024-03-17T00:24:10;97492.09;;;9.76;100.00
21361;BME280;10839;43.206;23.550;2024-03-17T00:26:36;97498.41;;;9.83;100.00
21361;BME280;10839;43.206;23.550;2024-03-17T00:29:01;97496.75;;;9.82;100.00
21361;BME280;10839;43.206;23.550;2024-03-17T00:31:28;97490.94;;;9.56;100.00
21361;BME280;10839;43.206;23.550;2024-03-17T00:33:54;97488.75;;;9.74;100.00
21361;BME280;10839;43.206;23.550;2024-03-17T00:36:20;97485.19;;;9.59;100.00
21361;BME280;10839;43.206;23.550;2024-03-17T00:38:45;97485.50;;;9.42;100.00
21361;BME280;10839;43.206;23.550;2024-03-17T00:41:11;97492.97;;;9.54;100.00
21361;BME280;10839;43.206;23.550;2024-03-17T00:43:37;97486.97;;;9.67;100.00
21361;BME280;10839;43.206;23.550;2024-03-17T00:46:03;97488.25;;;9.56;100.00
21361;BME280;10839;43.206;23.550;2024-03-17T00:48:28;97489.72;;;9.59;100.00
21361;BME280;10839;43.206;23.550;2024-03-17T00:50:55;97481.47;;;9.60;100.00
21361;BME280;10839;43.206;23.550;2024-03-17T00:53:21;97488.56;;;9.76;100.00
21361;BME280;10839;43.206;23.550;2024-03-17T00:55:53;97494.50;;;9.71;100.00
21361;BME280;10839;43.206;23.550;2024-03-17T00:58:22;97499.34;;;9.90;100.00
21361;BME280;10839;43.206;23.550;2024-03-17T01:00:48;97493.03;;;9.83;100.00
21361;BME280;10839;43.206;23.550;2024-03-17T01:03:14;97488.75;;;9.74;100.00
21361;BME280;10839;43.206;23.550;2024-03-17T01:05:40;97494.69;;;9.47;100.00
21361;BME280;10839;43.206;23.550;2024-03-17T01:08:08;97485.66;;;9.40;100.00
21361;BME280;10839;43.206;23.550;2024-03-17T01:10:37;97488.88;;;9.58;100.00
21361;BME280;10839;43.206;23.550;2024-03-17T01:13:04;97496.31;;;9.56;100.00
21361;BME280;10839;43.206;23.550;2024-03-17T01:15:30;97493.44;;;9.35;100.00
21361;BME280;10839;43.206;23.550;2024-03-17T01:17:55;97498.47;;;9.38;100.00
21361;BME280;10839;43.206;23.550;2024-03-17T01:20:21;97495.13;;;9.36;100.00
21361;BME280;10839;43.206;23.550;2024-03-17T01:22:46;97496.19;;;9.27;100.00
21361;BME280;10839;43.206;23.550;2024-03-17T01:25:12;97485.78;;;9.24;100.00
21361;BME280;10839;43.206;23.550;2024-03-17T01:27:37;97489.25;;;9.33;100.00
21361;BME280;10839;43.206;23.550;2024-03-17T01:30:03;97485.56;;;9.56;100.00
21361;BME280;10839;43.206;23.550;2024-03-17T01:32:29;97475.28;;;9.37;100.00
21361;BME280;10839;43.206;23.550;2024-03-17T01:34:55;97481.25;;;9.47;100.00
21361;BME280;10839;43.206;23.550;2024-03-17T01:37:20;97477.00;;;9.30;100.00
21361;BME280;10839;43.206;23.550;2024-03-17T01:39:46;97487.72;;;9.38;100.00
21361;BME280;10839;43.206;23.550;2024-03-17T01:42:11;97472.19;;;9.26;100.00
21361;BME280;10839;43.206;23.550;2024-03-17T01:44:37;97482.97;;;9.40;100.00
21361;BME280;10839;43.206;23.550;2024-03-17T01:47:02;97483.13;;;9.24;100.00
21361;BME280;10839;43.206;23.550;2024-03-17T01:49:28;97478.22;;;9.28;100.00
21361;BME280;10839;43.206;23.550;2024-03-17T01:51:55;97479.81;;;9.37;100.00
21361;BME280;10839;43.206;23.550;2024-03-17T01:54:21;97485.66;;;9.40;100.00
21361;BME280;10839;43.206;23.550;2024-03-17T01:56:47;97487.44;;;9.70;100.00
21361;BME280;10839;43.206;23.550;2024-03-17T01:59:13;97483.81;;;9.63;100.00
21361;BME280;10839;43.206;23.550;2024-03-17T02:01:39;97488.00;;;9.66;100.00
21361;BME280;10839;43.206;23.550;2024-03-17T02:04:06;97464.28;;;9.69;100.00
21361;BME280;10839;43.206;23.550;2024-03-17T02:06:32;97475.41;;;9.66;100.00
21361;BME280;10839;43.206;23.550;2024-03-17T02:08:58;97491.16;;;9.69;100.00
21361;BME280;10839;43.206;23.550;2024-03-17T02:13:51;97472.03;;;9.50;100.00
21361;BME280;10839;43.206;23.550;2024-03-17T02:16:16;97477.53;;;9.48;100.00
21361;BME280;10839;43.206;23.550;2024-03-17T02:18:44;97479.94;;;9.43;100.00
21361;BME280;10839;43.206;23.550;2024-03-17T02:21:09;97466.09;;;9.32;100.00
21361;BME280;10839;43.206;23.550;2024-03-17T02:23:35;97470.66;;;9.31;100.00
21361;BME280;10839;43.206;23.550;2024-03-17T02:26:00;97479.38;;;9.33;100.00
21361;BME280;10839;43.206;23.550;2024-03-17T02:28:26;97472.66;;;9.29;100.00
21361;BME280;10839;43.206;23.550;2024-03-17T02:30:51;97471.66;;;9.30;100.00
21361;BME280;10839;43.206;23.550;2024-03-17T02:33:17;97475.16;;;9.53;100.00
21361;BME280;10839;43.206;23.550;2024-03-17T02:35:43;97473.72;;;9.65;100.00
21361;BME280;10839;43.206;23.550;2024-03-17T02:38:09;97476.00;;;9.76;100.00
21361;BME280;10839;43.206;23.550;2024-03-17T02:40:40;97471.31;;;9.70;100.00
21361;BME280;10839;43.206;23.550;2024-03-17T02:43:06;97464.03;;;9.79;100.00
21361;BME280;10839;43.206;23.550;2024-03-17T02:45:31;97467.94;;;9.76;100.00
21361;BME280;10839;43.206;23.550;2024-03-17T02:47:57;97479.81;;;9.59;100.00
21361;BME280;10839;43.206;23.550;2024-03-17T02:50:22;97463.81;;;9.66;100.00
21361;BME280;10839;43.206;23.550;2024-03-17T02:52:48;97474.56;;;9.43;100.00
21361;BME280;10839;43.206;23.550;2024-03-17T02:55:14;97463.56;;;9.75;100.00
21361;BME280;10839;43.206;23.550;2024-03-17T02:57:39;97473.50;;;9.52;100.00
21361;BME280;10839;43.206;23.550;2024-03-17T03:00:06;97468.84;;;9.46;100.00
21361;BME280;10839;43.206;23.550;2024-03-17T03:02:34;97469.19;;;9.43;100.00
21361;BME280;10839;43.206;23.550;2024-03-17T03:04:59;97461.78;;;9.45;100.00
21361;BME280;10839;43.206;23.550;2024-03-17T03:07:25;97461.78;;;9.45;100.00
21361;BME280;10839;43.206;23.550;2024-03-17T03:09:51;97463.06;;;9.35;100.00
21361;BME280;10839;43.206;23.550;2024-03-17T03:12:16;97449.16;;;9.31;100.00
21361;BME280;10839;43.206;23.550;2024-03-17T03:14:42;97459.09;;;9.45;100.00
21361;BME280;10839;43.206;23.550;2024-03-17T03:17:07;97469.44;;;9.56;100.00
21361;BME280;10839;43.206;23.550;2024-03-17T03:19:33;97468.22;;;9.59;100.00
21361;BME280;10839;43.206;23.550;2024-03-17T03:21:59;97469.44;;;9.56;100.00
21361;BME280;10839;43.206;23.550;2024-03-17T03:24:25;97470.63;;;9.54;100.00
21361;BME280;10839;43.206;23.550;2024-03-17T03:26:50;97472.16;;;9.48;100.00
21361;BME280;10839;43.206;23.550;2024-03-17T03:29:16;97456.41;;;9.45;100.00
21361;BME280;10839;43.206;23.550;2024-03-17T03:31:41;97464.47;;;9.45;100.00
21361;BME280;10839;43.206;23.550;2024-03-17T03:34:07;97476.00;;;9.54;100.00
21361;BME280;10839;43.206;23.550;2024-03-17T03:36:34;97472.44;;;9.61;100.00
21361;BME280;10839;43.206;23.550;2024-03-17T03:39:02;97464.06;;;9.56;100.00
21361;BME280;10839;43.206;23.550;2024-03-17T03:41:30;97473.50;;;9.52;100.00
21361;BME280;10839;43.206;23.550;2024-03-17T03:43:56;97466.94;;;9.55;100.00
21361;BME280;10839;43.206;23.550;2024-03-17T03:46:22;97476.00;;;9.54;100.00
21361;BME280;10839;43.206;23.550;2024-03-17T03:48:48;97478.22;;;9.50;100.00
21361;BME280;10839;43.206;23.550;2024-03-17T03:51:13;97479.59;;;9.46;100.00
21361;BME280;10839;43.206;23.550;2024-03-17T03:53:39;97477.84;;;9.31;100.00
21361;BME280;10839;43.206;23.550;2024-03-17T03:56:06;97491.41;;;9.37;100.00
21361;BME280;10839;43.206;23.550;2024-03-17T03:58:35;97483.28;;;9.45;100.00
21361;BME280;10839;43.206;23.550;2024-03-17T04:01:05;97480.66;;;9.37;100.00
21361;BME280;10839;43.206;23.550;2024-03-17T04:03:32;97469.03;;;9.22;100.00
21361;BME280;10839;43.206;23.550;2024-03-17T04:06:05;97480.97;;;9.20;100.00
21361;BME280;10839;43.206;23.550;2024-03-17T04:08:35;97475.13;;;9.16;100.00
21361;BME280;10839;43.206;23.550;2024-03-17T04:11:02;97480.44;;;9.24;100.00
21361;BME280;10839;43.206;23.550;2024-03-17T04:13:30;97481.38;;;9.31;100.00
21361;BME280;10839;43.206;23.550;2024-03-17T04:15:57;97476.41;;;9.20;100.00
21361;BME280;10839;43.206;23.550;2024-03-17T04:18:27;97501.31;;;9.14;100.00
21361;BME280;10839;43.206;23.550;2024-03-17T04:20:57;97511.31;;;9.20;100.00
21361;BME280;10839;43.206;23.550;2024-03-17T04:23:23;97500.69;;;9.04;100.00
21361;BME280;10839;43.206;23.550;2024-03-17T04:25:50;97504.03;;;9.06;100.00
21361;BME280;10839;43.206;23.550;2024-03-17T04:28:16;97499.66;;;9.05;100.00
21361;BME280;10839;43.206;23.550;2024-03-17T04:30:42;97506.84;;;8.82;100.00
21361;BME280;10839;43.206;23.550;2024-03-17T04:33:11;97494.81;;;8.78;100.00
21361;BME280;10839;43.206;23.550;2024-03-17T04:35:38;97513.19;;;8.89;100.00
21361;BME280;10839;43.206;23.550;2024-03-17T04:38:04;97521.53;;;8.94;100.00
21361;BME280;10839;43.206;23.550;2024-03-17T04:40:31;97517.50;;;8.98;100.00
21361;BME280;10839;43.206;23.550;2024-03-17T04:42:56;97523.97;;;8.81;100.00
21361;BME280;10839;43.206;23.550;2024-03-17T04:45:22;97527.25;;;8.91;100.00
21361;BME280;10839;43.206;23.550;2024-03-17T04:47:47;97530.13;;;8.89;100.00
21361;BME280;10839;43.206;23.550;2024-03-17T04:50:13;97524.53;;;8.99;100.00
21361;BME280;10839;43.206;23.550;2024-03-17T04:52:38;97535.00;;;9.17;100.00
21361;BME280;10839;43.206;23.550;2024-03-17T04:55:04;97515.94;;;9.03;100.00
21361;BME280;10839;43.206;23.550;2024-03-17T04:57:29;97530.81;;;9.14;100.00
21361;BME280;10839;43.206;23.550;2024-03-17T04:59:55;97531.88;;;9.05;100.00
21361;BME280;10839;43.206;23.550;2024-03-17T05:02:20;97535.03;;;9.08;100.00
21361;BME280;10839;43.206;23.550;2024-03-17T05:04:48;97532.06;;;9.03;100.00
21361;BME280;10839;43.206;23.550;2024-03-17T05:07:14;97536.69;;;9.18;100.00
21361;BME280;10839;43.206;23.550;2024-03-17T05:09:39;97532.91;;;9.04;100.00
21361;BME280;10839;43.206;23.550;2024-03-17T05:12:05;97529.81;;;9.15;100.00
21361;BME280;10839;43.206;23.550;2024-03-17T05:14:31;97531.03;;;9.35;100.00
21361;BME280;10839;43.206;23.550;2024-03-17T05:16:56;97530.63;;;9.46;100.00
21361;BME280;10839;43.206;23.550;2024-03-17T05:19:22;97536.19;;;9.45;100.00
21361;BME280;10839;43.206;23.550;2024-03-17T05:21:48;97530.44;;;9.70;100.00
21361;BME280;10839;43.206;23.550;2024-03-17T05:24:14;97544.78;;;10.08;100.00
21361;BME280;10839;43.206;23.550;2024-03-17T05:26:40;97537.81;;;10.13;100.00
21361;BME280;10839;43.206;23.550;2024-03-17T05:29:07;97540.78;;;10.18;100.00
21361;BME280;10839;43.206;23.550;2024-03-17T05:31:33;97542.03;;;10.30;100.00
21361;BME280;10839;43.206;23.550;2024-03-17T05:33:59;97544.94;;;10.73;100.00
21361;BME280;10839;43.206;23.550;2024-03-17T05:36:24;97531.69;;;11.07;97.97
21361;BME280;10839;43.206;23.550;2024-03-17T05:38:50;97543.03;;;11.38;95.34
21361;BME280;10839;43.206;23.550;2024-03-17T05:41:15;97541.88;;;12.04;91.13
21361;BME280;10839;43.206;23.550;2024-03-17T05:43:41;97544.84;;;13.52;84.51
21361;BME280;10839;43.206;23.550;2024-03-17T05:46:11;97541.63;;;13.89;80.35
21361;BME280;10839;43.206;23.550;2024-03-17T05:48:38;97541.66;;;14.28;77.63
21361;BME280;10839;43.206;23.550;2024-03-17T05:51:09;97550.69;;;15.18;74.34
21361;BME280;10839;43.206;23.550;2024-03-17T05:53:36;97546.16;;;14.99;71.76
21361;BME280;10839;43.206;23.550;2024-03-17T05:56:04;97545.72;;;15.02;74.66
21361;BME280;10839;43.206;23.550;2024-03-17T05:58:30;97533.97;;;15.28;74.42
21361;BME280;10839;43.206;23.550;2024-03-17T06:00:56;97547.47;;;16.41;71.18
21361;BME280;10839;43.206;23.550;2024-03-17T06:03:21;97555.03;;;17.24;65.69
21361;BME280;10839;43.206;23.550;2024-03-17T06:05:48;97546.53;;;17.68;63.31
21361;BME280;10839;43.206;23.550;2024-03-17T06:08:14;97552.03;;;18.51;60.84
21361;BME280;10839;43.206;23.550;2024-03-17T06:10:45;97550.66;;;18.83;57.94
21361;BME280;10839;43.206;23.550;2024-03-17T06:13:11;97543.41;;;19.35;57.71
21361;BME280;10839;43.206;23.550;2024-03-17T06:15:39;97534.66;;;19.89;54.41
21361;BME280;10839;43.206;23.550;2024-03-17T06:18:05;97544.09;;;20.09;54.41
21361;BME280;10839;43.206;23.550;2024-03-17T06:20:34;97555.88;;;19.98;54.54
21361;BME280;10839;43.206;23.550;2024-03-17T06:23:00;97555.38;;;18.64;57.05
21361;BME280;10839;43.206;23.550;2024-03-17T06:25:25;97554.88;;;19.25;55.67
21361;BME280;10839;43.206;23.550;2024-03-17T06:27:51;97552.78;;;18.58;55.86
21361;BME280;10839;43.206;23.550;2024-03-17T06:30:18;97560.91;;;20.18;52.83
21361;BME280;10839;43.206;23.550;2024-03-17T06:32:45;97566.41;;;21.34;50.29
21361;BME280;10839;43.206;23.550;2024-03-17T06:35:11;97572.34;;;21.47;49.25
21361;BME280;10839;43.206;23.550;2024-03-17T06:37:37;97562.22;;;20.44;49.63
21361;BME280;10839;43.206;23.550;2024-03-17T06:40:04;97565.56;;;18.92;53.35
21361;BME280;10839;43.206;23.550;2024-03-17T06:42:31;97571.94;;;18.40;56.17
21361;BME280;10839;43.206;23.550;2024-03-17T06:44:56;97568.97;;;18.12;56.38
21361;BME280;10839;43.206;23.550;2024-03-17T06:47:22;97580.34;;;17.43;59.25
21361;BME280;10839;43.206;23.550;2024-03-17T06:49:48;97577.81;;;19.01;55.40
21361;BME280;10839;43.206;23.550;2024-03-17T06:52:13;97581.13;;;19.15;54.91
21361;BME280;10839;43.206;23.550;2024-03-17T06:54:39;97576.19;;;17.76;57.28
21361;BME280;10839;43.206;23.550;2024-03-17T06:57:05;97584.72;;;16.34;63.18
21361;BME280;10839;43.206;23.550;2024-03-17T06:59:33;97566.66;;;15.90;65.14
21361;BME280;10839;43.206;23.550;2024-03-17T07:01:58;97584.38;;;15.55;67.20
21361;BME280;10839;43.206;23.550;2024-03-17T07:04:24;97584.53;;;14.96;70.30
21361;BME280;10839;43.206;23.550;2024-03-17T07:06:49;97565.38;;;14.13;74.75
21361;BME280;10839;43.206;23.550;2024-03-17T07:09:16;97569.06;;;13.79;78.35
21361;BME280;10839;43.206;23.550;2024-03-17T07:11:43;97582.91;;;13.44;80.99
21361;BME280;10839;43.206;23.550;2024-03-17T07:14:09;97587.28;;;13.51;80.23
21361;BME280;10839;43.206;23.550;2024-03-17T07:16:35;97597.44;;;14.23;77.01
21361;BME280;10839;43.206;23.550;2024-03-17T07:19:02;97596.84;;;14.66;75.10
21361;BME280;10839;43.206;23.550;2024-03-17T07:21:27;97597.91;;;14.52;75.30
21361;BME280;10839;43.206;23.550;2024-03-17T07:23:53;97598.94;;;14.58;75.31
21361;BME280;10839;43.206;23.550;2024-03-17T07:26:18;97603.50;;;14.31;75.54
21361;BME280;10839;43.206;23.550;2024-03-17T07:28:44;97609.00;;;13.77;77.54
21361;BME280;10839;43.206;23.550;2024-03-17T07:31:10;97608.19;;;13.30;79.83
21361;BME280;10839;43.206;23.550;2024-03-17T07:33:37;97606.75;;;13.34;80.29
21361;BME280;10839;43.206;23.550;2024-03-17T07:36:02;97599.69;;;13.39;81.41
21361;BME280;10839;43.206;23.550;2024-03-17T07:38:31;97597.31;;;13.64;79.79
21361;BME280;10839;43.206;23.550;2024-03-17T07:40:58;97594.16;;;14.27;76.86
21361;BME280;10839;43.206;23.550;2024-03-17T07:43:24;97593.53;;;14.38;76.12
21361;BME280;10839;43.206;23.550;2024-03-17T07:46:20;97586.28;;;13.59;79.63
21361;BME280;10839;43.206;23.550;2024-03-17T07:48:45;97574.00;;;13.63;79.62
21361;BME280;10839;43.206;23.550;2024-03-17T07:51:13;97590.13;;;13.37;80.15
21361;BME280;10839;43.206;23.550;2024-03-17T07:53:44;97584.63;;;13.11;82.52
21361;BME280;10839;43.206;23.550;2024-03-17T07:56:11;97586.72;;;13.15;82.77
21361;BME280;10839;43.206;23.550;2024-03-17T07:58:39;97588.28;;;13.37;83.31
21361;BME280;10839;43.206;23.550;2024-03-17T08:01:09;97591.94;;;13.70;81.54
21361;BME280;10839;43.206;23.550;2024-03-17T08:03:44;97582.34;;;13.68;81.24
21361;BME280;10839;43.206;23.550;2024-03-17T08:06:10;97583.69;;;13.38;82.82
21361;BME280;10839;43.206;23.550;2024-03-17T08:08:36;97586.13;;;13.80;80.48
21361;BME280;10839;43.206;23.550;2024-03-17T08:11:02;97585.66;;;13.63;81.05
21361;BME280;10839;43.206;23.550;2024-03-17T08:13:32;97580.72;;;13.80;79.60
21361;BME280;10839;43.206;23.550;2024-03-17T08:16:02;97585.72;;;15.13;76.05
21361;BME280;10839;43.206;23.550;2024-03-17T08:18:28;97574.47;;;15.16;72.93
21361;BME280;10839;43.206;23.550;2024-03-17T08:20:54;97568.22;;;15.09;72.16
21361;BME280;10839;43.206;23.550;2024-03-17T08:23:23;97554.00;;;15.27;70.65
21361;BME280;10839;43.206;23.550;2024-03-17T08:25:59;97569.91;;;15.10;70.54
21361;BME280;10839;43.206;23.550;2024-03-17T08:28:25;97561.78;;;16.30;66.82
21361;BME280;10839;43.206;23.550;2024-03-17T08:30:58;97561.94;;;16.35;66.25
21361;BME280;10839;43.206;23.550;2024-03-17T08:33:25;97567.09;;;16.43;64.79
21361;BME280;10839;43.206;23.550;2024-03-17T08:36:20;97563.75;;;16.90;62.90
21361;BME280;10839;43.206;23.550;2024-03-17T08:38:46;97562.44;;;17.17;62.33
21361;BME280;10839;43.206;23.550;2024-03-17T08:41:13;97565.44;;;17.63;61.17
21361;BME280;10839;43.206;23.550;2024-03-17T08:43:39;97564.09;;;17.72;60.96
21361;BME280;10839;43.206;23.550;2024-03-17T08:46:10;97560.03;;;17.93;59.92
21361;BME280;10839;43.206;23.550;2024-03-17T08:48:38;97556.34;;;17.88;60.08
21361;BME280;10839;43.206;23.550;2024-03-17T08:51:05;97572.13;;;17.31;61.14
21361;BME280;10839;43.206;23.550;2024-03-17T08:53:32;97548.44;;;17.68;60.53
21361;BME280;10839;43.206;23.550;2024-03-17T08:55:59;97545.53;;;18.11;59.24
21361;BME280;10839;43.206;23.550;2024-03-17T08:58:25;97547.53;;;18.15;58.93
21361;BME280;10839;43.206;23.550;2024-03-17T09:00:51;97563.06;;;18.44;58.26
21361;BME280;10839;43.206;23.550;2024-03-17T09:03:17;97556.28;;;18.47;57.58
21361;BME280;10839;43.206;23.550;2024-03-17T09:05:46;97548.47;;;18.09;58.48
21361;BME280;10839;43.206;23.550;2024-03-17T09:08:19;97552.06;;;18.21;58.93
21361;BME280;10839;43.206;23.550;2024-03-17T09:10:48;97548.25;;;18.75;57.05
21361;BME280;10839;43.206;23.550;2024-03-17T09:13:16;97542.22;;;18.61;57.01
21361;BME280;10839;43.206;23.550;2024-03-17T09:15:59;97546.84;;;19.07;55.47
21361;BME280;10839;43.206;23.550;2024-03-17T09:18:26;97536.53;;;18.63;56.65
21361;BME280;10839;43.206;23.550;2024-03-17T09:23:26;97532.94;;;19.08;54.92
21361;BME280;10839;43.206;23.550;2024-03-17T09:28:22;97537.50;;;19.94;54.52
21361;BME280;10839;43.206;23.550;2024-03-17T09:30:48;97532.13;;;19.31;54.14
21361;BME280;10839;43.206;23.550;2024-03-17T09:33:14;97532.56;;;19.28;55.09
21361;BME280;10839;43.206;23.550;2024-03-17T09:35:40;97532.84;;;18.46;57.47
21361;BME280;10839;43.206;23.550;2024-03-17T09:38:06;97532.56;;;18.36;58.70
21361;BME280;10839;43.206;23.550;2024-03-17T09:40:32;97533.25;;;18.20;60.05
21361;BME280;10839;43.206;23.550;2024-03-17T09:42:57;97538.06;;;18.59;59.57
21361;BME280;10839;43.206;23.550;2024-03-17T09:45:24;97522.81;;;17.87;61.35
21361;BME280;10839;43.206;23.550;2024-03-17T09:47:51;97533.03;;;18.33;60.13
21361;BME280;10839;43.206;23.550;2024-03-17T09:50:16;97536.09;;;18.25;60.74
21361;BME280;10839;43.206;23.550;2024-03-17T09:52:45;97530.50;;;17.78;62.24
21361;BME280;10839;43.206;23.550;2024-03-17T09:55:16;97520.34;;;17.56;62.64
21361;BME280;10839;43.206;23.550;2024-03-17T09:57:43;97529.31;;;17.74;62.77
21361;BME280;10839;43.206;23.550;2024-03-17T10:00:11;97531.41;;;17.72;60.91
21361;BME280;10839;43.206;23.550;2024-03-17T10:02:47;97523.53;;;18.24;58.25
21361;BME280;10839;43.206;23.550;2024-03-17T10:05:24;97534.06;;;18.73;55.87
21361;BME280;10839;43.206;23.550;2024-03-17T10:07:50;97522.00;;;19.20;54.76
21361;BME280;10839;43.206;23.550;2024-03-17T10:10:17;97526.81;;;19.64;53.14
21361;BME280;10839;43.206;23.550;2024-03-17T10:12:43;97528.63;;;20.31;48.59
21361;BME280;10839;43.206;23.550;2024-03-17T10:15:11;97532.47;;;20.64;45.65
21361;BME280;10839;43.206;23.550;2024-03-17T10:17:38;97538.03;;;21.02;45.59
21361;BME280;10839;43.206;23.550;2024-03-17T10:23:00;97539.75;;;20.75;45.31
21361;BME280;10839;43.206;23.550;2024-03-17T10:25:28;97522.34;;;20.81;45.76
21361;BME280;10839;43.206;23.550;2024-03-17T10:27:55;97529.97;;;20.29;46.05
21361;BME280;10839;43.206;23.550;2024-03-17T10:30:22;97528.63;;;20.31;47.70
21361;BME280;10839;43.206;23.550;2024-03-17T10:32:53;97529.06;;;20.40;47.42
21361;BME280;10839;43.206;23.550;2024-03-17T10:35:33;97540.75;;;20.52;46.84
21361;BME280;10839;43.206;23.550;2024-03-17T10:38:04;97534.34;;;20.30;47.07
21361;BME280;10839;43.206;23.550;2024-03-17T10:40:31;97535.97;;;20.43;46.22
21361;BME280;10839;43.206;23.550;2024-03-17T10:43:00;97538.78;;;20.48;46.25
21361;BME280;10839;43.206;23.550;2024-03-17T10:45:26;97531.78;;;20.23;47.33
21361;BME280;10839;43.206;23.550;2024-03-17T10:47:56;97532.78;;;20.17;47.27
21361;BME280;10839;43.206;23.550;2024-03-17T10:50:23;97520.94;;;20.00;46.82
21361;BME280;10839;43.206;23.550;2024-03-17T10:52:50;97531.19;;;19.93;47.30
21361;BME280;10839;43.206;23.550;2024-03-17T10:55:26;97529.44;;;19.59;46.05
21361;BME280;10839;43.206;23.550;2024-03-17T10:57:53;97529.09;;;19.56;45.51
21361;BME280;10839;43.206;23.550;2024-03-17T11:00:21;97527.41;;;19.66;44.61
21361;BME280;10839;43.206;23.550;2024-03-17T11:02:53;97527.22;;;19.56;44.23
21361;BME280;10839;43.206;23.550;2024-03-17T11:05:26;97522.88;;;19.09;44.71
21361;BME280;10839;43.206;23.550;2024-03-17T11:07:57;97516.91;;;19.35;45.28
21361;BME280;10839;43.206;23.550;2024-03-17T11:10:36;97503.63;;;19.27;44.71
21361;BME280;10839;43.206;23.550;2024-03-17T11:13:04;97516.63;;;18.74;44.33
21361;BME280;10839;43.206;23.550;2024-03-17T11:21:05;97520.28;;;18.45;43.97
21361;BME280;10839;43.206;23.550;2024-03-17T11:23:36;97512.38;;;18.14;45.15
21361;BME280;10839;43.206;23.550;2024-03-17T11:26:04;97517.56;;;18.04;45.60
21361;BME280;10839;43.206;23.550;2024-03-17T11:31:38;97515.44;;;18.17;44.70
21361;BME280;10839;43.206;23.550;2024-03-17T11:34:07;97508.06;;;17.95;44.80
21361;BME280;10839;43.206;23.550;2024-03-17T11:36:50;97508.06;;;17.95;44.94
21361;BME280;10839;43.206;23.550;2024-03-17T11:39:16;97502.66;;;18.18;44.69
21361;BME280;10839;43.206;23.550;2024-03-17T11:41:53;97499.59;;;18.26;45.08
21361;BME280;10839;43.206;23.550;2024-03-17T11:47:02;97487.75;;;18.32;45.54
21361;BME280;10839;43.206;23.550;2024-03-17T11:49:34;97487.31;;;18.35;45.14
21361;BME280;10839;43.206;23.550;2024-03-17T11:52:04;97473.09;;;18.33;45.07
21361;BME280;10839;43.206;23.550;2024-03-17T11:54:35;97474.19;;;17.91;45.82
21361;BME280;10839;43.206;23.550;2024-03-17T11:57:05;97485.59;;;18.11;46.08
21361;BME280;10839;43.206;23.550;2024-03-17T11:59:32;97482.25;;;18.50;45.91
21361;BME280;10839;43.206;23.550;2024-03-17T12:01:58;97480.09;;;18.52;45.89
21361;BME280;10839;43.206;23.550;2024-03-17T12:04:24;97472.91;;;17.93;47.22
21361;BME280;10839;43.206;23.550;2024-03-17T12:06:52;97476.34;;;18.12;47.19
21361;BME280;10839;43.206;23.550;2024-03-17T12:09:21;97478.28;;;18.23;47.61
21361;BME280;10839;43.206;23.550;2024-03-17T12:14:32;97474.84;;;18.39;47.83
21361;BME280;10839;43.206;23.550;2024-03-17T12:17:09;97469.78;;;18.77;47.36
21361;BME280;10839;43.206;23.550;2024-03-17T12:19:36;97454.28;;;18.66;47.55
21361;BME280;10839;43.206;23.550;2024-03-17T12:22:04;97455.53;;;18.29;48.81
21361;BME280;10839;43.206;23.550;2024-03-17T12:24:34;97467.66;;;18.56;47.84
21361;BME280;10839;43.206;23.550;2024-03-17T12:27:05;97459.81;;;18.25;48.74
21361;BME280;10839;43.206;23.550;2024-03-17T12:29:35;97453.44;;;18.54;48.23
21361;BME280;10839;43.206;23.550;2024-03-17T12:32:06;97462.66;;;18.30;48.76
21361;BME280;10839;43.206;23.550;2024-03-17T12:34:35;97458.63;;;18.21;49.23
21361;BME280;10839;43.206;23.550;2024-03-17T12:37:00;97465.94;;;18.09;49.98
21361;BME280;10839;43.206;23.550;2024-03-17T12:39:26;97467.34;;;18.00;50.72
21361;BME280;10839;43.206;23.550;2024-03-17T12:42:06;97471.16;;;17.69;51.53
21361;BME280;10839;43.206;23.550;2024-03-17T12:44:32;97465.53;;;17.52;52.54
21361;BME280;10839;43.206;23.550;2024-03-17T12:46:58;97466.09;;;17.72;52.17
21361;BME280;10839;43.206;23.550;2024-03-17T12:49:30;97460.72;;;17.36;53.59
21361;BME280;10839;43.206;23.550;2024-03-17T12:51:56;97460.09;;;17.52;53.35
21361;BME280;10839;43.206;23.550;2024-03-17T12:54:23;97460.47;;;17.56;53.43
21361;BME280;10839;43.206;23.550;2024-03-17T12:56:49;97462.69;;;17.47;53.32
21361;BME280;10839;43.206;23.550;2024-03-17T12:59:37;97464.19;;;17.25;54.34
21361;BME280;10839;43.206;23.550;2024-03-17T13:02:21;97462.84;;;17.34;54.33
21361;BME280;10839;43.206;23.550;2024-03-17T13:05:04;97459.22;;;17.22;54.88
21361;BME280;10839;43.206;23.550;2024-03-17T13:07:30;97450.44;;;17.20;55.09
21361;BME280;10839;43.206;23.550;2024-03-17T13:09:55;97448.97;;;17.06;55.76
21361;BME280;10839;43.206;23.550;2024-03-17T13:12:21;97458.63;;;17.02;56.19
21361;BME280;10839;43.206;23.550;2024-03-17T13:14:46;97449.16;;;16.93;56.13
21361;BME280;10839;43.206;23.550;2024-03-17T13:17:14;97454.13;;;16.96;56.35